Eagle, CO

2:43 PM MST on December 20, 2014 (GMT -0700)
The Orchard | Change Station
CLOSE
Current Station
Personal Weather Station
Location: Eagle, CO
Elevation: 6700 ft
Nearby Weather Stations
Active Advisory: Winter Storm Watch Active Notice: Public Information Statement

Elev 6700 ft 39.64 °N, 106.82 °W | Updated 2 seconds ago

Mostly Cloudy
Mostly Cloudy
32.4 °F
Feels Like 32 °F
N
0.0
Wind Variable Wind from SSE
Gusts 0.0 mph

Today
High -- | Low -- °F
--% Chance of Precip.
Yesterday
High -- | Low -- °F
Precip. -- in
7:24 AM 4:45 PM
Waning Crescent, 2% visible
Pressure 30.11 in
Visibility 10.0 miles
Clouds Few 4600 ft
Mostly Cloudy 6500 ft
Windchill 32 °F
Dew Point 21 °F
Humidity 63%
Rainfall 0.00 in
Snow Depth Not available.
UV 1 out of 12
Pollen .10 out of 12
Air Quality Not available.
Flu Activity Not available.
METAR KEGE 202050Z 00000KT 10SM VCSH FEW046 BKN065 M01/M06 A3011

More Conditions Fewer Conditions

Pressure 30.11 in
Visibility 10.0 miles
Clouds Few 4600 ft
Mostly Cloudy 6500 ft
Windchill 32 °F
Dew Point 21 °F
Humidity 63%
Rainfall 0.00 in
Snow Depth Not available.
UV 1 out of 12
Pollen .10 out of 12
Air Quality Not available.
Flu Activity Not available.
METAR KEGE 202050Z 00000KT 10SM VCSH FEW046 BKN065 M01/M06 A3011

More Conditions Fewer Conditions

10-Day Weather Forecast

Almanac

Astronomy

Dec. 20, 2014 Rise Set
Actual Time
Civil Twilight
Nautical Twilight
Astronomical Twilight
Moon
Length of Visible Light
Length of Day
Tomorrow will be .
, % of the Moon is Illuminated

Today's Extremes

State Highs State Lows

Community

WunderPhotos

Upload Photos

1,779,286 photos uploaded!

WunderBlogs® & News

Nearby

Air Quality

  Air Quality AQ Index Pollutant
Not available.

Snow Depth

Station Depth Elevation

Earthquake Activity

City Distance Mag. Time & Date
Minimum magnitude displayed is 2.5.

Coastal Water Temperatures

Place Temperature

Nearby Weather Stations